createdAt,value
2018-04-08T00:00:31.087Z,95.53
2018-04-08T00:01:31.154Z,96.04
2018-04-08T00:02:31.094Z,96.28
2018-04-08T00:03:31.159Z,96.31
2018-04-08T00:04:31.088Z,96.26
2018-04-08T00:05:31.166Z,96.26
2018-04-08T00:06:31.093Z,96.15
2018-04-08T00:07:31.160Z,96.02
2018-04-08T00:09:31.196Z,96.02
2018-04-08T00:10:31.161Z,96.09
2018-04-08T00:11:31.098Z,96.20
2018-04-08T00:12:31.163Z,96.31
2018-04-08T00:13:31.097Z,96.28
2018-04-08T00:14:31.136Z,96.45
2018-04-08T00:15:31.162Z,96.58
2018-04-08T00:16:31.097Z,96.69
2018-04-08T00:17:31.095Z,96.80
2018-04-08T00:18:31.069Z,96.80
2018-04-08T00:19:31.158Z,96.85
2018-04-08T00:20:31.160Z,96.74
2018-04-08T00:21:31.094Z,96.69
2018-04-08T00:22:31.071Z,96.58
2018-04-08T00:23:31.071Z,96.66
2018-04-08T00:24:31.072Z,96.85
2018-04-08T00:25:31.163Z,96.96
2018-04-08T00:26:31.075Z,97.26
2018-04-08T00:27:31.157Z,97.61
2018-04-08T00:28:31.238Z,97.88
2018-04-08T00:29:31.178Z,98.10
2018-04-08T00:30:31.103Z,98.10
2018-04-08T00:31:31.175Z,98.40
2018-04-08T00:32:31.174Z,98.69
2018-04-08T00:33:31.178Z,98.88
2018-04-08T00:34:31.176Z,98.96
2018-04-08T00:35:31.108Z,99.04
2018-04-08T00:36:31.188Z,98.99
2018-04-08T00:37:31.114Z,98.94
2018-04-08T00:38:31.181Z,98.85
2018-04-08T00:39:31.178Z,98.66
2018-04-08T00:40:31.182Z,98.69
2018-04-08T00:41:31.118Z,98.61
2018-04-08T00:42:31.180Z,98.53
2018-04-08T00:43:31.111Z,98.66
2018-04-08T00:44:31.109Z,98.75
2018-04-08T00:45:31.185Z,99.07
2018-04-08T00:46:31.115Z,98.99
2018-04-08T00:47:31.107Z,98.96
2018-04-08T00:48:31.156Z,98.91
2018-04-08T00:49:31.155Z,98.88
2018-04-08T00:50:31.238Z,98.69
2018-04-08T00:51:31.089Z,98.69
2018-04-08T00:52:31.118Z,98.61
2018-04-08T00:53:31.216Z,98.55
2018-04-08T00:54:31.228Z,98.59
2018-04-08T00:55:31.149Z,98.59
2018-04-08T00:56:31.207Z,98.64
2018-04-08T00:57:31.202Z,98.85
2018-04-08T00:58:31.057Z,99.07
2018-04-08T00:59:31.062Z,99.04
2018-04-08T01:00:31.123Z,99.26
2018-04-08T01:01:31.083Z,99.34
2018-04-08T01:02:31.122Z,99.40
2018-04-08T01:03:31.085Z,99.37
2018-04-08T01:04:31.130Z,99.37
2018-04-08T01:05:31.065Z,99.59
2018-04-08T01:06:31.170Z,99.64
2018-04-08T01:07:31.180Z,99.59
2018-04-08T01:08:31.193Z,99.59
2018-04-08T01:09:31.232Z,99.62
2018-04-08T01:10:31.143Z,99.56
2018-04-08T01:11:31.194Z,99.51
2018-04-08T01:12:31.220Z,99.59
2018-04-08T01:13:31.216Z,99.64
2018-04-08T01:14:31.135Z,99.62
2018-04-08T01:15:31.240Z,99.67
2018-04-08T01:16:31.266Z,99.67
2018-04-08T01:17:31.210Z,99.67
2018-04-08T01:18:31.203Z,99.59
2018-04-08T01:19:31.135Z,99.59
2018-04-08T01:20:31.138Z,99.64
2018-04-08T01:21:31.206Z,99.67
2018-04-08T01:22:31.207Z,99.67
2018-04-08T01:23:31.170Z,99.83
2018-04-08T01:24:31.164Z,99.92
2018-04-08T01:25:31.141Z,99.99
2018-04-08T01:26:31.140Z,99.99
2018-04-08T01:27:31.270Z,99.99
2018-04-08T01:28:31.298Z,99.99
2018-04-08T01:29:31.234Z,99.99
2018-04-08T01:30:31.172Z,99.99
2018-04-08T01:31:31.213Z,99.99
2018-04-08T01:32:31.150Z,99.99
2018-04-08T01:33:31.177Z,99.99
2018-04-08T01:34:31.268Z,99.99
2018-04-08T01:35:31.235Z,99.99
2018-04-08T01:36:31.111Z,99.99
2018-04-08T01:37:31.237Z,99.99
2018-04-08T01:38:31.178Z,99.96
2018-04-08T01:39:31.214Z,99.83
2018-04-08T01:40:31.181Z,99.83
2018-04-08T01:41:31.276Z,99.96
2018-04-08T01:42:31.156Z,99.99
2018-04-08T01:43:31.195Z,99.99
2018-04-08T01:44:31.119Z,99.99
2018-04-08T01:45:31.278Z,99.99
2018-04-08T01:46:31.256Z,99.99
2018-04-08T01:47:31.186Z,99.99
2018-04-08T01:48:31.151Z,99.99
2018-04-08T01:49:31.155Z,99.99
2018-04-08T01:50:31.157Z,99.99
2018-04-08T01:51:31.159Z,99.99
2018-04-08T01:52:31.158Z,99.99
2018-04-08T01:53:31.154Z,99.99
2018-04-08T01:54:31.158Z,99.99
2018-04-08T01:55:31.228Z,99.51
2018-04-08T01:56:31.160Z,99.15
2018-04-08T01:57:31.159Z,98.66
2018-04-08T01:58:31.146Z,98.53
2018-04-08T01:59:31.225Z,98.04
2018-04-08T02:00:31.147Z,97.80
2018-04-08T02:01:31.226Z,97.53
2018-04-08T02:02:31.287Z,97.07
2018-04-08T02:03:31.199Z,96.66
2018-04-08T02:04:31.200Z,96.58
2018-04-08T02:05:31.138Z,96.53
2018-04-08T02:06:31.229Z,96.42
2018-04-08T02:07:31.268Z,96.26
2018-04-08T02:08:31.242Z,96.34
2018-04-08T02:09:31.322Z,96.69
2018-04-08T02:10:31.173Z,97.23
2018-04-08T02:11:31.137Z,97.64
2018-04-08T02:12:31.252Z,98.02
2018-04-08T02:13:31.203Z,98.10
2018-04-08T02:14:31.245Z,98.21
2018-04-08T02:15:31.176Z,98.26
2018-04-08T02:16:31.215Z,98.21
2018-04-08T02:17:31.266Z,98.31
2018-04-08T02:18:31.277Z,97.96
2018-04-08T02:19:31.292Z,97.80
2018-04-08T02:20:31.199Z,97.80
2018-04-08T02:21:31.273Z,97.83
2018-04-08T02:22:31.210Z,97.83
2018-04-08T02:23:31.215Z,97.85
2018-04-08T02:24:31.182Z,97.91
2018-04-08T02:25:31.241Z,97.93
2018-04-08T02:26:31.162Z,97.93
2018-04-08T02:27:31.213Z,97.85
2018-04-08T02:28:31.275Z,97.80
2018-04-08T02:29:31.287Z,97.93
2018-04-08T02:30:31.248Z,98.02
2018-04-08T02:31:31.288Z,98.40
2018-04-08T02:32:31.288Z,98.77
2018-04-08T02:33:31.224Z,99.51
2018-04-08T02:34:31.168Z,99.64
2018-04-08T02:35:31.263Z,99.99
2018-04-08T02:36:31.231Z,99.99
2018-04-08T02:37:31.284Z,99.99
2018-04-08T02:38:31.258Z,99.99
2018-04-08T02:39:31.255Z,99.99
2018-04-08T02:40:31.260Z,99.99
2018-04-08T02:41:31.204Z,99.67
2018-04-08T02:42:31.260Z,99.32
2018-04-08T02:43:31.263Z,99.02
2018-04-08T02:44:31.258Z,98.75
2018-04-08T02:45:31.193Z,98.45
2018-04-08T02:46:31.259Z,98.31
2018-04-08T02:47:31.187Z,98.26
2018-04-08T02:48:31.213Z,98.55
2018-04-08T02:49:31.189Z,99.23
2018-04-08T02:50:31.265Z,99.53
2018-04-08T02:51:31.280Z,99.75
2018-04-08T02:52:31.147Z,99.86
2018-04-08T02:53:31.265Z,99.99
2018-04-08T02:54:31.195Z,99.83
2018-04-08T02:55:31.191Z,99.53
2018-04-08T02:56:31.270Z,99.13
2018-04-08T02:57:31.272Z,98.94
2018-04-08T02:58:31.262Z,98.69
2018-04-08T02:59:31.236Z,98.59
2018-04-08T03:00:31.261Z,98.45
2018-04-08T03:01:31.139Z,98.34
2018-04-08T03:02:31.258Z,98.42
2018-04-08T03:03:31.229Z,98.59
2018-04-08T03:04:31.232Z,98.85
2018-04-08T03:05:31.172Z,99.10
2018-04-08T03:06:31.259Z,99.34
2018-04-08T03:07:31.142Z,99.56
2018-04-08T03:08:31.268Z,99.70
2018-04-08T03:09:31.231Z,99.83
2018-04-08T03:10:31.206Z,99.81
2018-04-08T03:11:31.256Z,99.70
2018-04-08T03:12:31.264Z,99.59
2018-04-08T03:13:31.175Z,99.45
2018-04-08T03:14:31.206Z,99.21
2018-04-08T03:15:31.259Z,99.07
2018-04-08T03:16:31.168Z,98.94
2018-04-08T03:17:31.250Z,98.91
2018-04-08T03:18:31.210Z,98.91
2018-04-08T03:19:31.277Z,99.02
2018-04-08T03:20:31.298Z,99.07
2018-04-08T03:21:31.251Z,99.26
2018-04-08T03:22:31.183Z,99.59
2018-04-08T03:23:31.244Z,99.86
2018-04-08T03:24:31.184Z,99.99
2018-04-08T03:25:31.338Z,99.99
2018-04-08T03:26:31.179Z,99.99
2018-04-08T03:27:31.280Z,99.99
2018-04-08T03:28:31.211Z,99.99
2018-04-08T03:29:31.288Z,99.99
2018-04-08T03:30:31.216Z,99.99
2018-04-08T03:31:31.289Z,99.99
2018-04-08T03:32:31.249Z,99.99
2018-04-08T03:33:31.239Z,99.99
2018-04-08T03:34:31.327Z,99.99
2018-04-08T03:35:31.218Z,99.99
2018-04-08T03:36:31.291Z,99.99
2018-04-08T03:37:31.223Z,99.99
2018-04-08T03:38:31.224Z,99.99
2018-04-08T03:39:31.220Z,99.99
2018-04-08T03:40:31.287Z,99.99
2018-04-08T03:41:31.227Z,99.99
2018-04-08T03:42:31.254Z,99.99
2018-04-08T03:43:31.296Z,99.99
2018-04-08T03:44:31.295Z,99.99
2018-04-08T03:45:31.394Z,99.99
2018-04-08T03:46:31.339Z,99.99
2018-04-08T03:47:31.225Z,99.99
2018-04-08T03:48:31.302Z,99.99
2018-04-08T03:49:31.227Z,99.99
2018-04-08T03:50:31.300Z,99.99
2018-04-08T03:51:31.304Z,99.99
2018-04-08T03:52:31.232Z,99.99
2018-04-08T03:53:31.188Z,99.99
2018-04-08T03:54:31.238Z,99.99
2018-04-08T03:55:31.301Z,99.99
2018-04-08T03:56:31.187Z,99.99
2018-04-08T03:57:31.305Z,99.99
2018-04-08T03:58:31.304Z,99.99
2018-04-08T03:59:31.353Z,99.99
2018-04-08T04:00:31.237Z,99.99
2018-04-08T04:01:31.304Z,99.99
2018-04-08T04:02:31.222Z,99.99
2018-04-08T04:03:31.207Z,99.99
2018-04-08T04:04:31.263Z,99.99
2018-04-08T04:05:31.305Z,99.99
2018-04-08T04:06:31.332Z,99.99
2018-04-08T04:07:31.327Z,99.99
2018-04-08T04:08:31.243Z,99.99
2018-04-08T04:09:31.310Z,99.99
2018-04-08T04:10:31.243Z,99.99
2018-04-08T04:11:31.238Z,99.99
2018-04-08T04:12:31.310Z,99.99
2018-04-08T04:13:31.242Z,99.99
2018-04-08T04:14:31.311Z,99.99
2018-04-08T04:15:31.244Z,99.99
2018-04-08T04:16:31.339Z,99.99
2018-04-08T04:17:31.241Z,99.99
2018-04-08T04:18:31.245Z,99.99
2018-04-08T04:19:31.318Z,99.99
2018-04-08T04:20:31.248Z,99.99
2018-04-08T04:21:31.314Z,99.99
2018-04-08T04:22:31.322Z,99.99
2018-04-08T04:23:31.249Z,99.99
2018-04-08T04:24:31.318Z,99.99
2018-04-08T04:25:31.245Z,99.99
2018-04-08T04:26:31.254Z,99.78
2018-04-08T04:27:31.320Z,99.45
2018-04-08T04:28:31.328Z,99.32
2018-04-08T04:29:31.286Z,98.94
2018-04-08T04:30:31.252Z,98.66
2018-04-08T04:31:31.323Z,98.40
2018-04-08T04:32:31.361Z,98.12
2018-04-08T04:33:31.328Z,98.12
2018-04-08T04:34:31.255Z,98.10
2018-04-08T04:35:31.325Z,97.99
2018-04-08T04:36:31.261Z,97.96
2018-04-08T04:37:31.346Z,97.99
2018-04-08T04:38:31.283Z,98.15
2018-04-08T04:39:31.289Z,98.21
2018-04-08T04:40:31.366Z,98.02
2018-04-08T04:41:31.306Z,97.88
2018-04-08T04:42:31.294Z,97.77
2018-04-08T04:43:31.257Z,97.55
2018-04-08T04:44:31.304Z,97.26
2018-04-08T04:45:31.360Z,96.96
2018-04-08T04:46:31.254Z,96.69
2018-04-08T04:47:31.337Z,96.55
2018-04-08T04:48:31.354Z,96.42
2018-04-08T04:49:31.331Z,96.15
2018-04-08T04:50:31.352Z,95.80
2018-04-08T04:51:31.340Z,95.58
2018-04-08T04:52:31.358Z,95.39
2018-04-08T04:53:31.331Z,95.28
2018-04-08T04:54:31.240Z,95.20
2018-04-08T04:55:31.312Z,95.23
2018-04-08T04:56:31.282Z,95.15
2018-04-08T04:57:31.407Z,95.26
2018-04-08T04:58:31.340Z,95.50
2018-04-08T04:59:31.358Z,95.72
2018-04-08T05:00:31.298Z,95.85
2018-04-08T05:01:31.278Z,96.09
2018-04-08T05:02:31.362Z,96.17
2018-04-08T05:03:31.365Z,96.28
2018-04-08T05:04:31.378Z,96.36
2018-04-08T05:05:31.370Z,96.39
2018-04-08T05:06:31.344Z,96.47
2018-04-08T05:07:31.369Z,96.64
2018-04-08T05:08:31.364Z,96.77
2018-04-08T05:09:31.345Z,96.85
2018-04-08T05:10:31.314Z,96.88
2018-04-08T05:11:31.251Z,96.99
2018-04-08T05:12:31.378Z,97.12
2018-04-08T05:13:31.247Z,97.23
2018-04-08T05:14:31.324Z,97.34
2018-04-08T05:15:31.371Z,97.45
2018-04-08T05:16:31.314Z,97.61
2018-04-08T05:17:31.308Z,97.85
2018-04-08T05:18:31.337Z,98.10
2018-04-08T05:19:31.289Z,98.40
2018-04-08T05:20:31.282Z,98.45
2018-04-08T05:21:31.335Z,98.59
2018-04-08T05:22:31.232Z,98.55
2018-04-08T05:23:31.339Z,98.69
2018-04-08T05:24:31.338Z,98.69
2018-04-08T05:25:31.340Z,98.75
2018-04-08T05:26:31.340Z,98.80
2018-04-08T05:27:31.237Z,98.83
2018-04-08T05:28:31.214Z,98.64
2018-04-08T05:29:31.279Z,98.50
2018-04-08T05:30:31.279Z,98.45
2018-04-08T05:31:31.337Z,98.31
2018-04-08T05:32:31.304Z,98.26
2018-04-08T05:33:31.275Z,98.15
2018-04-08T05:34:31.334Z,98.12
2018-04-08T05:35:31.220Z,97.96
2018-04-08T05:36:31.342Z,97.91
2018-04-08T05:37:31.337Z,97.83
2018-04-08T05:38:31.309Z,97.88
2018-04-08T05:39:31.344Z,97.58
2018-04-08T05:40:31.350Z,97.34
2018-04-08T05:41:31.301Z,97.02
2018-04-08T05:42:31.263Z,96.55
2018-04-08T05:43:31.392Z,96.34
2018-04-08T05:44:31.265Z,95.94
2018-04-08T05:45:31.234Z,95.53
2018-04-08T05:46:31.300Z,95.28
2018-04-08T05:47:31.273Z,94.99
2018-04-08T05:48:31.358Z,94.80
2018-04-08T05:49:31.286Z,94.83
2018-04-08T05:50:31.237Z,94.80
2018-04-08T05:51:31.361Z,94.83
2018-04-08T05:52:31.335Z,94.80
2018-04-08T05:53:31.308Z,94.80
2018-04-08T05:54:31.254Z,94.67
2018-04-08T05:55:31.312Z,94.26
2018-04-08T05:56:31.290Z,93.62
2018-04-08T05:57:31.366Z,93.05
2018-04-08T05:58:31.379Z,92.24
2018-04-08T05:59:31.376Z,92.03
2018-04-08T06:00:31.375Z,91.49
2018-04-08T06:01:31.376Z,91.03
2018-04-08T06:02:31.375Z,90.53
2018-04-08T06:03:31.376Z,90.07
2018-04-08T06:04:31.308Z,89.62
2018-04-08T06:05:31.383Z,89.43
2018-04-08T06:06:31.380Z,88.65
2018-04-08T06:07:31.312Z,87.80
2018-04-08T06:08:31.312Z,86.01
2018-04-08T06:09:31.413Z,85.35
2018-04-08T06:10:31.281Z,85.03
2018-04-08T06:11:31.289Z,84.44
2018-04-08T06:12:31.285Z,83.70
2018-04-08T06:13:31.407Z,83.62
2018-04-08T06:14:31.408Z,82.64
2018-04-08T06:15:31.406Z,82.03
2018-04-08T06:16:31.354Z,81.56
2018-04-08T06:17:31.423Z,81.00
2018-04-08T06:18:31.425Z,80.47
2018-04-08T06:19:31.192Z,80.41
2018-04-08T06:20:31.281Z,80.26
2018-04-08T06:21:31.250Z,79.75
2018-04-08T06:22:31.192Z,79.71
2018-04-08T06:23:31.319Z,79.47
2018-04-08T06:24:31.307Z,79.91
2018-04-08T06:25:31.240Z,79.71
2018-04-08T06:26:31.286Z,79.57
2018-04-08T06:27:31.199Z,78.86
2018-04-08T06:28:31.195Z,79.63
2018-04-08T06:29:31.364Z,78.33
2018-04-08T06:30:31.392Z,77.17
2018-04-08T06:31:31.440Z,76.49
2018-04-08T06:32:31.408Z,76.18
2018-04-08T06:33:31.369Z,76.39
2018-04-08T06:34:31.354Z,75.47
2018-04-08T06:35:31.368Z,74.81
2018-04-08T06:36:31.432Z,74.03
2018-04-08T06:37:31.401Z,74.50
2018-04-08T06:38:31.365Z,73.55
2018-04-08T06:39:31.421Z,73.30
2018-04-08T06:40:31.429Z,73.27
2018-04-08T06:41:31.432Z,73.24
2018-04-08T06:42:31.422Z,73.19
2018-04-08T06:43:31.439Z,72.95
2018-04-08T06:44:31.435Z,72.17
2018-04-08T06:45:31.358Z,72.46
2018-04-08T06:46:31.366Z,72.61
2018-04-08T06:47:31.341Z,72.30
2018-04-08T06:48:31.433Z,72.33
2018-04-08T06:49:31.277Z,71.91
2018-04-08T06:50:31.367Z,71.62
2018-04-08T06:51:31.270Z,71.99
2018-04-08T06:52:31.391Z,72.53
2018-04-08T06:53:31.275Z,71.96
2018-04-08T06:54:31.310Z,72.53
2018-04-08T06:55:31.325Z,72.14
2018-04-08T06:56:31.316Z,72.80
2018-04-08T06:57:31.276Z,72.72
2018-04-08T06:58:31.317Z,71.94
2018-04-08T06:59:31.411Z,71.42
2018-04-08T07:00:31.343Z,71.28
2018-04-08T07:01:31.408Z,71.00
2018-04-08T07:02:31.341Z,70.56
2018-04-08T07:03:31.413Z,70.58
2018-04-08T07:04:31.408Z,70.17
2018-04-08T07:05:31.346Z,70.35
2018-04-08T07:06:31.417Z,70.29
2018-04-08T07:07:31.346Z,70.68
2018-04-08T07:08:31.414Z,70.27
2018-04-08T07:09:31.347Z,69.85
2018-04-08T07:10:31.420Z,69.12
2018-04-08T07:11:31.418Z,68.63
2018-04-08T07:12:31.420Z,67.83
2018-04-08T07:13:31.350Z,67.91
2018-04-08T07:14:31.350Z,68.24
2018-04-08T07:15:31.355Z,67.72
2018-04-08T07:16:31.352Z,67.72
2018-04-08T07:17:31.304Z,67.46
2018-04-08T07:18:31.456Z,67.31
2018-04-08T07:19:31.325Z,66.92
2018-04-08T07:20:31.451Z,66.89
2018-04-08T07:21:31.464Z,65.68
2018-04-08T07:22:31.389Z,66.04
2018-04-08T07:23:31.420Z,65.81
2018-04-08T07:24:31.497Z,65.11
2018-04-08T07:25:31.426Z,63.85
2018-04-08T07:26:31.447Z,63.87
2018-04-08T07:27:31.330Z,63.66
2018-04-08T07:28:31.442Z,62.53
2018-04-08T07:29:31.391Z,63.26
2018-04-08T07:30:31.398Z,62.27
2018-04-08T07:31:31.488Z,62.74
2018-04-08T07:32:31.492Z,63.35
2018-04-08T07:33:31.336Z,63.20
2018-04-08T07:34:31.452Z,63.15
2018-04-08T07:35:31.435Z,62.66
2018-04-08T07:36:31.433Z,62.94
2018-04-08T07:37:31.399Z,63.26
2018-04-08T07:38:31.393Z,63.72
2018-04-08T07:39:31.391Z,64.21
2018-04-08T07:40:31.408Z,64.57
2018-04-08T07:41:31.357Z,64.57
2018-04-08T07:42:31.464Z,64.52
2018-04-08T07:43:31.401Z,63.62
2018-04-08T07:44:31.399Z,62.92
2018-04-08T07:45:31.414Z,62.58
2018-04-08T07:46:31.459Z,62.63
2018-04-08T07:47:31.440Z,62.27
2018-04-08T07:48:31.418Z,61.76
2018-04-08T07:49:31.430Z,62.25
2018-04-08T07:50:31.428Z,61.56
2018-04-08T07:51:31.388Z,59.20
2018-04-08T07:52:31.428Z,59.58
2018-04-08T07:53:31.395Z,60.73
2018-04-08T07:54:31.373Z,59.12
2018-04-08T07:55:31.396Z,58.12
2018-04-08T07:56:31.352Z,59.32
2018-04-08T07:57:31.435Z,58.02
2018-04-08T07:58:31.430Z,58.68
2018-04-08T07:59:31.379Z,58.59
2018-04-08T08:00:31.442Z,59.22
2018-04-08T08:01:31.326Z,59.09
2018-04-08T08:02:31.437Z,59.68
2018-04-08T08:03:31.404Z,58.79
2018-04-08T08:04:31.386Z,57.99
2018-04-08T08:05:31.404Z,57.69
2018-04-08T08:06:31.442Z,57.56
2018-04-08T08:07:31.444Z,56.06
2018-04-08T08:08:31.369Z,58.04
2018-04-08T08:09:31.448Z,56.95
2018-04-08T08:10:31.452Z,57.51
2018-04-08T08:11:31.469Z,56.97
2018-04-08T08:12:31.451Z,56.21
2018-04-08T08:13:31.362Z,56.31
2018-04-08T08:14:31.417Z,55.42
2018-04-08T08:15:31.426Z,55.45
2018-04-08T08:16:31.471Z,55.04
2018-04-08T08:17:31.497Z,55.70
2018-04-08T08:18:31.456Z,54.04
2018-04-08T08:19:31.356Z,53.59
2018-04-08T08:20:31.420Z,53.03
2018-04-08T08:21:31.434Z,52.75
2018-04-08T08:22:31.463Z,52.68
2018-04-08T08:23:31.465Z,52.83
2018-04-08T08:24:31.385Z,51.11
2018-04-08T08:25:31.444Z,50.45
2018-04-08T08:26:31.421Z,50.63
2018-04-08T08:27:31.365Z,51.95
2018-04-08T08:28:31.435Z,50.86
2018-04-08T08:29:31.477Z,50.33
2018-04-08T08:30:31.433Z,49.64
2018-04-08T08:31:31.401Z,49.62
2018-04-08T08:32:31.488Z,49.95
2018-04-08T08:33:31.388Z,50.30
2018-04-08T08:34:31.369Z,50.18
2018-04-08T08:35:31.493Z,50.35
2018-04-08T08:36:31.493Z,49.85
2018-04-08T08:37:31.471Z,49.75
2018-04-08T08:38:31.371Z,50.48
2018-04-08T08:39:31.471Z,48.72
2018-04-08T08:40:31.401Z,49.02
2018-04-08T08:41:31.407Z,47.98
2018-04-08T08:42:31.478Z,49.14
2018-04-08T08:43:31.429Z,49.69
2018-04-08T08:44:31.408Z,48.46
2018-04-08T08:45:31.473Z,48.01
2018-04-08T08:46:31.406Z,48.74
2018-04-08T08:47:31.407Z,49.49
2018-04-08T08:48:31.477Z,47.93
2018-04-08T08:49:31.441Z,47.26
2018-04-08T08:50:31.403Z,48.06
2018-04-08T08:51:31.513Z,48.31
2018-04-08T08:52:31.442Z,47.76
2018-04-08T08:53:31.453Z,48.51
2018-04-08T08:54:31.452Z,46.81
2018-04-08T08:55:31.438Z,47.63
2018-04-08T08:56:31.481Z,47.78
2018-04-08T08:57:31.438Z,47.83
2018-04-08T08:58:31.453Z,47.58
2018-04-08T08:59:31.403Z,48.36
2018-04-08T09:00:31.617Z,48.81
2018-04-08T09:01:31.450Z,45.77
2018-04-08T09:02:31.514Z,47.06
2018-04-08T09:03:31.505Z,47.76
2018-04-08T09:04:31.391Z,47.61
2018-04-08T09:05:31.517Z,46.38
2018-04-08T09:06:31.414Z,47.28
2018-04-08T09:07:31.454Z,47.88
2018-04-08T09:08:31.446Z,47.58
2018-04-08T09:09:31.487Z,46.63
2018-04-08T09:10:31.419Z,46.85
2018-04-08T09:11:31.520Z,47.51
2018-04-08T09:12:31.492Z,47.18
2018-04-08T09:13:31.423Z,47.45
2018-04-08T09:14:31.495Z,46.85
2018-04-08T09:15:31.427Z,46.78
2018-04-08T09:16:31.495Z,45.18
2018-04-08T09:17:31.477Z,46.90
2018-04-08T09:18:31.429Z,46.38
2018-04-08T09:19:31.461Z,47.31
2018-04-08T09:20:31.525Z,46.90
2018-04-08T09:21:31.456Z,46.75
2018-04-08T09:22:31.471Z,46.68
2018-04-08T09:23:31.498Z,47.51
2018-04-08T09:24:31.520Z,46.05
2018-04-08T09:25:31.532Z,46.55
2018-04-08T09:26:31.534Z,46.81
2018-04-08T09:27:31.446Z,46.60
2018-04-08T09:28:31.544Z,45.52
2018-04-08T09:29:31.503Z,46.93
2018-04-08T09:30:31.540Z,46.48
2018-04-08T09:31:31.486Z,46.50
2018-04-08T09:32:31.459Z,44.68
2018-04-08T09:33:31.410Z,44.07
2018-04-08T09:34:31.504Z,43.88
2018-04-08T09:35:31.486Z,44.87
2018-04-08T09:36:31.426Z,42.05
2018-04-08T09:37:31.475Z,42.95
2018-04-08T09:38:31.511Z,43.08
2018-04-08T09:39:31.528Z,41.78
2018-04-08T09:40:31.531Z,43.50
2018-04-08T09:41:31.479Z,43.90
2018-04-08T09:42:31.509Z,42.15
2018-04-08T09:43:31.551Z,41.35
2018-04-08T09:44:31.485Z,41.18
2018-04-08T09:45:31.542Z,40.85
2018-04-08T09:46:31.510Z,41.45
2018-04-08T09:47:31.478Z,40.73
2018-04-08T09:48:31.417Z,41.48
2018-04-08T09:49:31.471Z,40.96
2018-04-08T09:50:31.518Z,41.85
2018-04-08T09:51:31.515Z,42.10
2018-04-08T09:52:31.514Z,41.23
2018-04-08T09:53:31.451Z,39.84
2018-04-08T09:54:31.516Z,39.59
2018-04-08T09:55:31.448Z,39.12
2018-04-08T09:56:31.522Z,39.52
2018-04-08T09:57:31.453Z,40.38
2018-04-08T09:58:31.450Z,39.22
2018-04-08T09:59:31.484Z,39.89
2018-04-08T10:00:31.442Z,41.13
2018-04-08T10:01:31.429Z,39.91
2018-04-08T10:02:31.486Z,40.24
2018-04-08T10:03:31.506Z,40.29
2018-04-08T10:04:31.434Z,38.72
2018-04-08T10:05:31.530Z,40.21
2018-04-08T10:06:31.481Z,40.06
2018-04-08T10:07:31.548Z,40.21
2018-04-08T10:08:31.527Z,40.09
2018-04-08T10:09:31.529Z,40.73
2018-04-08T10:10:31.527Z,41.10
2018-04-08T10:11:31.462Z,42.10
2018-04-08T10:12:31.454Z,40.46
2018-04-08T10:13:31.462Z,42.72
2018-04-08T10:14:31.465Z,39.96
2018-04-08T10:15:31.531Z,40.85
2018-04-08T10:16:31.467Z,39.40
2018-04-08T10:17:31.521Z,40.88
2018-04-08T10:18:31.533Z,39.57
2018-04-08T10:19:31.468Z,37.41
2018-04-08T10:20:31.468Z,36.97
2018-04-08T10:21:31.535Z,37.09
2018-04-08T10:22:31.534Z,38.05
2018-04-08T10:23:31.471Z,36.55
2018-04-08T10:24:31.469Z,37.27
2018-04-08T10:25:31.542Z,35.76
2018-04-08T10:26:31.419Z,35.76
2018-04-08T10:27:31.468Z,35.66
2018-04-08T10:28:31.517Z,36.64
2018-04-08T10:29:31.539Z,35.29
2018-04-08T10:30:31.572Z,35.51
2018-04-08T10:31:31.460Z,35.78
2018-04-08T10:32:31.507Z,35.78
2018-04-08T10:33:31.523Z,37.96
2018-04-08T10:34:31.504Z,35.44
2018-04-08T10:35:31.568Z,36.42
2018-04-08T10:36:31.451Z,33.84
2018-04-08T10:37:31.511Z,35.04
2018-04-08T10:38:31.518Z,35.73
2018-04-08T10:39:31.550Z,34.67
2018-04-08T10:40:31.605Z,35.73
2018-04-08T10:41:31.585Z,35.29
2018-04-08T10:42:31.547Z,34.67
2018-04-08T10:43:31.526Z,34.04
2018-04-08T10:44:31.516Z,33.25
2018-04-08T10:45:31.526Z,34.90
2018-04-08T10:46:31.516Z,34.28
2018-04-08T10:47:31.471Z,35.49
2018-04-08T10:48:31.550Z,35.78
2018-04-08T10:49:31.529Z,35.29
2018-04-08T10:50:31.454Z,35.34
2018-04-08T10:51:31.529Z,34.06
2018-04-08T10:52:31.455Z,34.50
2018-04-08T10:53:31.460Z,33.89
2018-04-08T10:54:31.533Z,32.98
2018-04-08T10:55:31.558Z,34.50
2018-04-08T10:56:31.453Z,35.68
2018-04-08T10:57:31.582Z,35.66
2018-04-08T10:58:31.586Z,35.17
2018-04-08T10:59:31.576Z,34.33
2018-04-08T11:00:31.463Z,33.66
2018-04-08T11:01:31.557Z,33.05
2018-04-08T11:02:31.591Z,34.82
2018-04-08T11:03:31.521Z,33.94
2018-04-08T11:04:31.580Z,34.35
2018-04-08T11:05:31.514Z,36.67
2018-04-08T11:06:31.540Z,37.91
2018-04-08T11:07:31.583Z,36.33
2018-04-08T11:08:31.571Z,33.22
2018-04-08T11:09:31.448Z,33.32
2018-04-08T11:10:31.476Z,32.91
2018-04-08T11:11:31.431Z,32.63
2018-04-08T11:12:31.466Z,33.44
2018-04-08T11:13:31.485Z,33.22
2018-04-08T11:14:31.523Z,34.18
2018-04-08T11:15:31.567Z,37.44
2018-04-08T11:16:31.552Z,34.28
2018-04-08T11:17:31.450Z,35.07
2018-04-08T11:18:31.559Z,34.82
2018-04-08T11:19:31.543Z,36.70
2018-04-08T11:20:31.608Z,37.41
2018-04-08T11:21:31.596Z,34.67
2018-04-08T11:22:31.539Z,34.43
2018-04-08T11:23:31.591Z,33.40
2018-04-08T11:24:31.573Z,33.66
2018-04-08T11:25:31.608Z,32.17
2018-04-08T11:26:31.603Z,32.07
2018-04-08T11:27:31.576Z,34.77
2018-04-08T11:28:31.533Z,32.79
2018-04-08T11:29:31.575Z,32.24
2018-04-08T11:30:31.511Z,32.71
2018-04-08T11:31:31.606Z,31.51
2018-04-08T11:32:31.510Z,32.29
2018-04-08T11:33:31.578Z,32.12
2018-04-08T11:34:31.576Z,34.65
2018-04-08T11:35:31.517Z,31.46
2018-04-08T11:36:31.514Z,35.31
2018-04-08T11:37:31.584Z,31.95
2018-04-08T11:38:31.548Z,32.29
2018-04-08T11:39:31.581Z,31.78
2018-04-08T11:40:31.538Z,31.66
2018-04-08T11:41:31.551Z,34.60
2018-04-08T11:42:31.590Z,33.15
2018-04-08T11:43:31.542Z,39.19
2018-04-08T11:44:31.502Z,34.33
2018-04-08T11:45:31.716Z,35.59
2018-04-08T11:46:31.554Z,30.26
2018-04-08T11:48:31.608Z,32.22
2018-04-08T11:49:31.471Z,32.12
2018-04-08T11:50:31.584Z,31.22
2018-04-08T11:51:31.595Z,32.19
2018-04-08T11:52:31.552Z,31.63
2018-04-08T11:53:31.591Z,31.73
2018-04-08T11:54:31.592Z,31.90
2018-04-08T11:55:31.522Z,31.34
2018-04-08T11:56:31.557Z,32.00
2018-04-08T11:57:31.527Z,33.25
2018-04-08T11:58:31.547Z,31.12
2018-04-08T11:59:31.619Z,31.48
2018-04-08T12:00:31.553Z,31.27
2018-04-08T12:01:31.621Z,30.51
2018-04-08T12:02:31.563Z,30.48
2018-04-08T12:03:31.570Z,31.53
2018-04-08T12:04:31.638Z,31.56
2018-04-08T12:05:31.520Z,32.29
2018-04-08T12:06:31.506Z,32.98
2018-04-08T12:07:31.567Z,32.02
2018-04-08T12:08:31.569Z,32.02
2018-04-08T12:09:31.519Z,31.97
2018-04-08T12:10:31.555Z,31.80
2018-04-08T12:11:31.578Z,31.05
2018-04-08T12:12:31.604Z,31.58
2018-04-08T12:13:31.525Z,31.90
2018-04-08T12:14:31.563Z,32.07
2018-04-08T12:15:31.603Z,29.75
2018-04-08T12:16:31.610Z,33.54
2018-04-08T12:17:31.525Z,31.07
2018-04-08T12:18:31.574Z,28.58
2018-04-08T12:19:31.574Z,30.34
2018-04-08T12:20:31.606Z,31.63
2018-04-08T12:21:31.528Z,33.32
2018-04-08T12:22:31.576Z,31.44
2018-04-08T12:23:31.580Z,30.78
2018-04-08T12:24:31.561Z,31.46
2018-04-08T12:25:31.673Z,31.00
2018-04-08T12:26:31.513Z,30.92
2018-04-08T12:27:31.646Z,30.53
2018-04-08T12:29:31.581Z,31.48
2018-04-08T12:30:31.595Z,31.90
2018-04-08T12:31:31.595Z,30.02
2018-04-08T12:32:31.538Z,31.46
2018-04-08T12:33:31.506Z,31.05
2018-04-08T12:34:31.572Z,31.51
2018-04-08T12:35:31.608Z,30.17
2018-04-08T12:36:31.596Z,31.19
2018-04-08T12:37:31.604Z,31.02
2018-04-08T12:38:31.598Z,33.08
2018-04-08T12:39:31.536Z,33.10
2018-04-08T12:40:31.616Z,30.87
2018-04-08T12:41:31.657Z,30.85
2018-04-08T12:42:31.641Z,30.22
2018-04-08T12:43:31.672Z,30.26
2018-04-08T12:44:31.661Z,30.44
2018-04-08T12:45:31.601Z,30.68
2018-04-08T12:46:31.599Z,30.80
2018-04-08T12:47:31.583Z,33.94
2018-04-08T12:48:31.529Z,31.36
2018-04-08T12:49:31.593Z,29.73
2018-04-08T12:50:31.623Z,31.66
2018-04-08T12:51:31.518Z,33.69
2018-04-08T12:52:31.513Z,36.64
2018-04-08T12:53:31.577Z,35.04
2018-04-08T12:54:31.611Z,34.11
2018-04-08T12:55:31.613Z,31.63